sensor_id;sensor_type;location;lat;lon;timestamp;pressure;altitude;pressure_sealevel;temperature;humidity
55217;BME280;41086;46.736;15.666;2024-02-04T00:02:00;99091.25;;;4.39;100.00
55217;BME280;41086;46.736;15.666;2024-02-04T00:04:27;99082.78;;;3.77;100.00
55217;BME280;41086;46.736;15.666;2024-02-04T00:06:54;99078.19;;;3.84;100.00
55217;BME280;41086;46.736;15.666;2024-02-04T00:09:21;99069.66;;;4.31;100.00
55217;BME280;41086;46.736;15.666;2024-02-04T00:11:49;99054.84;;;4.55;100.00
55217;BME280;41086;46.736;15.666;2024-02-04T00:14:16;99050.50;;;4.54;100.00
55217;BME280;41086;46.736;15.666;2024-02-04T00:16:43;99041.56;;;4.59;100.00
55217;BME280;41086;46.736;15.666;2024-02-04T00:19:10;99053.44;;;4.19;100.00
55217;BME280;41086;46.736;15.666;2024-02-04T00:21:36;99035.22;;;3.62;100.00
55217;BME280;41086;46.736;15.666;2024-02-04T00:24:04;99039.25;;;3.16;100.00
55217;BME280;41086;46.736;15.666;2024-02-04T00:26:31;99039.25;;;3.16;100.00
55217;BME280;41086;46.736;15.666;2024-02-04T00:28:57;99046.97;;;2.89;100.00
55217;BME280;41086;46.736;15.666;2024-02-04T00:31:24;99036.63;;;3.16;100.00
55217;BME280;41086;46.736;15.666;2024-02-04T00:33:51;99027.50;;;3.29;100.00
55217;BME280;41086;46.736;15.666;2024-02-04T00:36:18;99025.94;;;3.50;100.00
55217;BME280;41086;46.736;15.666;2024-02-04T00:38:46;99031.03;;;3.56;100.00
55217;BME280;41086;46.736;15.666;2024-02-04T00:41:13;99020.00;;;3.73;100.00
55217;BME280;41086;46.736;15.666;2024-02-04T00:43:39;99032.75;;;4.10;100.00
55217;BME280;41086;46.736;15.666;2024-02-04T00:46:06;99033.75;;;4.06;100.00
55217;BME280;41086;46.736;15.666;2024-02-04T00:48:34;99036.03;;;4.17;100.00
55217;BME280;41086;46.736;15.666;2024-02-04T00:51:01;99021.03;;;4.20;100.00
55217;BME280;41086;46.736;15.666;2024-02-04T00:53:28;99029.09;;;4.14;100.00
55217;BME280;41086;46.736;15.666;2024-02-04T00:56:02;99025.88;;;4.06;100.00
55217;BME280;41086;46.736;15.666;2024-02-04T00:58:29;99037.34;;;4.04;100.00
55217;BME280;41086;46.736;15.666;2024-02-04T01:00:56;99043.66;;;3.98;100.00
55217;BME280;41086;46.736;15.666;2024-02-04T01:03:23;99030.53;;;3.98;100.00
55217;BME280;41086;46.736;15.666;2024-02-04T01:05:50;99039.06;;;4.05;100.00
55217;BME280;41086;46.736;15.666;2024-02-04T01:08:17;99035.97;;;4.18;100.00
55217;BME280;41086;46.736;15.666;2024-02-04T01:10:44;99024.94;;;4.09;100.00
55217;BME280;41086;46.736;15.666;2024-02-04T01:13:11;99008.03;;;3.91;100.00
55217;BME280;41086;46.736;15.666;2024-02-04T01:15:38;98984.53;;;3.88;100.00
55217;BME280;41086;46.736;15.666;2024-02-04T01:18:05;99003.41;;;3.99;100.00
55217;BME280;41086;46.736;15.666;2024-02-04T01:20:32;98990.91;;;4.07;100.00
55217;BME280;41086;46.736;15.666;2024-02-04T01:22:59;99014.44;;;3.82;100.00
55217;BME280;41086;46.736;15.666;2024-02-04T01:25:26;99008.53;;;2.91;100.00
55217;BME280;41086;46.736;15.666;2024-02-04T01:27:52;99017.50;;;3.12;100.00
55217;BME280;41086;46.736;15.666;2024-02-04T01:30:21;99027.53;;;2.98;100.00
55217;BME280;41086;46.736;15.666;2024-02-04T01:32:47;99037.13;;;3.57;100.00
55217;BME280;41086;46.736;15.666;2024-02-04T01:35:14;99041.38;;;2.72;100.00
55217;BME280;41086;46.736;15.666;2024-02-04T01:37:42;99029.25;;;2.99;100.00
55217;BME280;41086;46.736;15.666;2024-02-04T01:40:15;99030.28;;;2.62;100.00
55217;BME280;41086;46.736;15.666;2024-02-04T01:42:42;99038.59;;;2.12;100.00
55217;BME280;41086;46.736;15.666;2024-02-04T01:45:10;99025.47;;;2.47;100.00
55217;BME280;41086;46.736;15.666;2024-02-04T01:47:37;99028.06;;;2.14;100.00
55217;BME280;41086;46.736;15.666;2024-02-04T01:50:04;99023.59;;;2.19;100.00
55217;BME280;41086;46.736;15.666;2024-02-04T01:52:33;99038.53;;;2.48;100.00
55217;BME280;41086;46.736;15.666;2024-02-04T01:55:03;99035.84;;;2.50;100.00
55217;BME280;41086;46.736;15.666;2024-02-04T01:57:32;99024.56;;;3.10;100.00
55217;BME280;41086;46.736;15.666;2024-02-04T02:00:02;99042.38;;;3.27;100.00
55217;BME280;41086;46.736;15.666;2024-02-04T02:02:32;99052.97;;;3.52;100.00
55217;BME280;41086;46.736;15.666;2024-02-04T02:05:00;99044.84;;;3.61;100.00
55217;BME280;41086;46.736;15.666;2024-02-04T02:07:28;99053.47;;;3.65;100.00
55217;BME280;41086;46.736;15.666;2024-02-04T02:09:54;99044.56;;;3.69;100.00
55217;BME280;41086;46.736;15.666;2024-02-04T02:12:47;99039.41;;;3.94;100.00
55217;BME280;41086;46.736;15.666;2024-02-04T02:15:22;99043.53;;;4.01;100.00
55217;BME280;41086;46.736;15.666;2024-02-04T02:17:57;99013.47;;;3.58;100.00
55217;BME280;41086;46.736;15.666;2024-02-04T02:20:45;99051.88;;;3.59;100.00
55217;BME280;41086;46.736;15.666;2024-02-04T02:23:30;99036.06;;;3.62;100.00
55217;BME280;41086;46.736;15.666;2024-02-04T02:25:58;99025.97;;;3.76;100.00
55217;BME280;41086;46.736;15.666;2024-02-04T02:28:25;98998.19;;;3.71;100.00
55217;BME280;41086;46.736;15.666;2024-02-04T02:30:52;99007.69;;;2.91;100.00
55217;BME280;41086;46.736;15.666;2024-02-04T02:33:19;98997.75;;;3.30;100.00
55217;BME280;41086;46.736;15.666;2024-02-04T02:35:51;99006.25;;;3.08;100.00
55217;BME280;41086;46.736;15.666;2024-02-04T02:38:26;98996.28;;;2.31;100.00
55217;BME280;41086;46.736;15.666;2024-02-04T02:41:03;98991.50;;;2.76;100.00
55217;BME280;41086;46.736;15.666;2024-02-04T02:43:32;98993.84;;;2.56;100.00
55217;BME280;41086;46.736;15.666;2024-02-04T02:46:01;99009.84;;;2.43;100.00
55217;BME280;41086;46.736;15.666;2024-02-04T02:48:28;99014.06;;;2.16;100.00
55217;BME280;41086;46.736;15.666;2024-02-04T02:50:55;98990.34;;;2.22;100.00
55217;BME280;41086;46.736;15.666;2024-02-04T02:53:22;99003.16;;;2.33;100.00
55217;BME280;41086;46.736;15.666;2024-02-04T02:55:49;99023.75;;;2.13;100.00
55217;BME280;41086;46.736;15.666;2024-02-04T02:58:16;99017.75;;;2.09;100.00
55217;BME280;41086;46.736;15.666;2024-02-04T03:00:42;99016.31;;;2.30;100.00
55217;BME280;41086;46.736;15.666;2024-02-04T03:03:09;98999.97;;;2.22;100.00
55217;BME280;41086;46.736;15.666;2024-02-04T03:05:36;98980.66;;;2.59;100.00
55217;BME280;41086;46.736;15.666;2024-02-04T03:08:04;98980.28;;;2.71;100.00
55217;BME280;41086;46.736;15.666;2024-02-04T03:10:31;98989.59;;;2.81;100.00
55217;BME280;41086;46.736;15.666;2024-02-04T03:12:58;99004.69;;;2.42;100.00
55217;BME280;41086;46.736;15.666;2024-02-04T03:15:25;98998.69;;;2.70;100.00
55217;BME280;41086;46.736;15.666;2024-02-04T03:17:51;98993.59;;;2.95;100.00
55217;BME280;41086;46.736;15.666;2024-02-04T03:20:18;98997.25;;;2.89;100.00
55217;BME280;41086;46.736;15.666;2024-02-04T03:22:45;99010.38;;;2.56;100.00
55217;BME280;41086;46.736;15.666;2024-02-04T03:25:12;99005.41;;;2.47;100.00
55217;BME280;41086;46.736;15.666;2024-02-04T03:27:40;99000.22;;;3.06;100.00
55217;BME280;41086;46.736;15.666;2024-02-04T03:30:07;99012.88;;;2.61;100.00
55217;BME280;41086;46.736;15.666;2024-02-04T03:32:34;99002.56;;;2.24;100.00
55217;BME280;41086;46.736;15.666;2024-02-04T03:35:01;98990.03;;;2.36;100.00
55217;BME280;41086;46.736;15.666;2024-02-04T03:37:30;98994.44;;;2.34;100.00
55217;BME280;41086;46.736;15.666;2024-02-04T03:39:56;98973.97;;;2.17;100.00
55217;BME280;41086;46.736;15.666;2024-02-04T03:42:24;99000.13;;;2.16;100.00
55217;BME280;41086;46.736;15.666;2024-02-04T03:44:50;98995.59;;;2.22;100.00
55217;BME280;41086;46.736;15.666;2024-02-04T03:47:17;98986.66;;;1.63;100.00
55217;BME280;41086;46.736;15.666;2024-02-04T03:49:44;98984.19;;;2.25;100.00
55217;BME280;41086;46.736;15.666;2024-02-04T03:52:11;98994.69;;;1.91;100.00
55217;BME280;41086;46.736;15.666;2024-02-04T03:54:38;98990.34;;;2.24;100.00
55217;BME280;41086;46.736;15.666;2024-02-04T03:57:05;98994.50;;;2.31;100.00
55217;BME280;41086;46.736;15.666;2024-02-04T03:59:33;98995.84;;;2.13;100.00
55217;BME280;41086;46.736;15.666;2024-02-04T04:02:00;98991.44;;;2.15;100.00
55217;BME280;41086;46.736;15.666;2024-02-04T04:04:27;98994.75;;;2.22;100.00
55217;BME280;41086;46.736;15.666;2024-02-04T04:06:54;98951.19;;;2.21;100.00
55217;BME280;41086;46.736;15.666;2024-02-04T04:09:21;98954.00;;;2.13;100.00
55217;BME280;41086;46.736;15.666;2024-02-04T04:11:48;98958.50;;;2.08;100.00
55217;BME280;41086;46.736;15.666;2024-02-04T04:14:14;98955.66;;;1.85;100.00
55217;BME280;41086;46.736;15.666;2024-02-04T04:16:41;98961.19;;;2.05;100.00
55217;BME280;41086;46.736;15.666;2024-02-04T04:19:08;98955.13;;;2.05;100.00
55217;BME280;41086;46.736;15.666;2024-02-04T04:21:37;98962.75;;;2.45;100.00
55217;BME280;41086;46.736;15.666;2024-02-04T04:24:04;98975.09;;;2.40;100.00
55217;BME280;41086;46.736;15.666;2024-02-04T04:26:31;98963.19;;;2.59;100.00
55217;BME280;41086;46.736;15.666;2024-02-04T04:28:58;98954.34;;;2.93;100.00
55217;BME280;41086;46.736;15.666;2024-02-04T04:31:25;98973.78;;;2.86;100.00
55217;BME280;41086;46.736;15.666;2024-02-04T04:33:51;98981.03;;;3.06;100.00
55217;BME280;41086;46.736;15.666;2024-02-04T04:36:20;98989.78;;;3.05;100.00
55217;BME280;41086;46.736;15.666;2024-02-04T04:38:47;98997.84;;;3.27;100.00
55217;BME280;41086;46.736;15.666;2024-02-04T04:41:17;99008.22;;;3.30;100.00
55217;BME280;41086;46.736;15.666;2024-02-04T04:43:43;99006.56;;;2.68;100.00
55217;BME280;41086;46.736;15.666;2024-02-04T04:46:10;98988.69;;;2.53;100.00
55217;BME280;41086;46.736;15.666;2024-02-04T04:48:37;99006.31;;;2.77;100.00
55217;BME280;41086;46.736;15.666;2024-02-04T04:51:04;99002.59;;;2.84;100.00
55217;BME280;41086;46.736;15.666;2024-02-04T04:53:31;99005.31;;;2.81;100.00
55217;BME280;41086;46.736;15.666;2024-02-04T04:55:58;99012.03;;;2.90;100.00
55217;BME280;41086;46.736;15.666;2024-02-04T04:58:25;99011.09;;;2.93;100.00
55217;BME280;41086;46.736;15.666;2024-02-04T05:00:52;98994.50;;;2.94;100.00
55217;BME280;41086;46.736;15.666;2024-02-04T05:03:18;99012.19;;;3.15;100.00
55217;BME280;41086;46.736;15.666;2024-02-04T05:05:45;99010.66;;;3.08;100.00
55217;BME280;41086;46.736;15.666;2024-02-04T05:08:14;99003.78;;;3.04;100.00
55217;BME280;41086;46.736;15.666;2024-02-04T05:10:41;99005.19;;;3.16;100.00
55217;BME280;41086;46.736;15.666;2024-02-04T05:13:08;99006.84;;;3.18;100.00
55217;BME280;41086;46.736;15.666;2024-02-04T05:15:35;99013.78;;;2.91;100.00
55217;BME280;41086;46.736;15.666;2024-02-04T05:18:02;99005.13;;;3.17;100.00
55217;BME280;41086;46.736;15.666;2024-02-04T05:20:30;99003.69;;;3.37;100.00
55217;BME280;41086;46.736;15.666;2024-02-04T05:22:57;99027.25;;;2.77;100.00
55217;BME280;41086;46.736;15.666;2024-02-04T05:25:24;99027.34;;;2.41;100.00
55217;BME280;41086;46.736;15.666;2024-02-04T05:27:52;99025.06;;;2.62;100.00
55217;BME280;41086;46.736;15.666;2024-02-04T05:30:19;99036.94;;;2.42;100.00
55217;BME280;41086;46.736;15.666;2024-02-04T05:32:45;99030.31;;;2.29;100.00
55217;BME280;41086;46.736;15.666;2024-02-04T05:35:12;99033.00;;;2.59;100.00
55217;BME280;41086;46.736;15.666;2024-02-04T05:37:39;99037.88;;;2.40;100.00
55217;BME280;41086;46.736;15.666;2024-02-04T05:40:06;99016.97;;;2.38;100.00
55217;BME280;41086;46.736;15.666;2024-02-04T05:42:33;99029.31;;;2.96;100.00
55217;BME280;41086;46.736;15.666;2024-02-04T05:45:02;99037.88;;;2.40;100.00
55217;BME280;41086;46.736;15.666;2024-02-04T05:47:29;99021.72;;;2.88;100.00
55217;BME280;41086;46.736;15.666;2024-02-04T05:49:56;99036.84;;;3.08;100.00
55217;BME280;41086;46.736;15.666;2024-02-04T05:52:23;99039.34;;;2.81;100.00
55217;BME280;41086;46.736;15.666;2024-02-04T05:54:50;99029.31;;;3.25;100.00
55217;BME280;41086;46.736;15.666;2024-02-04T05:57:17;99042.50;;;3.52;100.00
55217;BME280;41086;46.736;15.666;2024-02-04T05:59:43;99040.16;;;2.83;100.00
55217;BME280;41086;46.736;15.666;2024-02-04T06:02:10;99029.16;;;3.31;100.00
55217;BME280;41086;46.736;15.666;2024-02-04T06:04:37;99040.22;;;3.69;100.00
55217;BME280;41086;46.736;15.666;2024-02-04T06:07:06;99038.53;;;3.93;100.00
55217;BME280;41086;46.736;15.666;2024-02-04T06:09:33;99050.44;;;3.77;100.00
55217;BME280;41086;46.736;15.666;2024-02-04T06:12:00;99046.34;;;3.68;100.00
55217;BME280;41086;46.736;15.666;2024-02-04T06:14:27;99048.34;;;3.88;100.00
55217;BME280;41086;46.736;15.666;2024-02-04T06:16:54;99016.91;;;3.32;100.00
55217;BME280;41086;46.736;15.666;2024-02-04T06:19:20;99045.94;;;3.54;100.00
55217;BME280;41086;46.736;15.666;2024-02-04T06:21:47;99033.47;;;3.32;100.00
55217;BME280;41086;46.736;15.666;2024-02-04T06:24:14;99055.69;;;3.49;100.00
55217;BME280;41086;46.736;15.666;2024-02-04T06:26:41;99061.00;;;2.88;100.00
55217;BME280;41086;46.736;15.666;2024-02-04T06:29:08;99044.81;;;3.03;100.00
55217;BME280;41086;46.736;15.666;2024-02-04T06:31:35;99057.84;;;2.75;100.00
55217;BME280;41086;46.736;15.666;2024-02-04T06:34:02;99049.63;;;3.19;100.00
55217;BME280;41086;46.736;15.666;2024-02-04T06:36:29;99059.47;;;3.40;100.00
55217;BME280;41086;46.736;15.666;2024-02-04T06:38:56;99067.69;;;3.84;100.00
55217;BME280;41086;46.736;15.666;2024-02-04T06:41:22;99078.63;;;3.70;100.00
55217;BME280;41086;46.736;15.666;2024-02-04T06:43:49;99075.88;;;3.75;100.00
55217;BME280;41086;46.736;15.666;2024-02-04T06:46:26;99087.41;;;3.69;100.00
55217;BME280;41086;46.736;15.666;2024-02-04T06:48:53;99065.34;;;3.19;100.00
55217;BME280;41086;46.736;15.666;2024-02-04T06:51:20;99076.00;;;3.70;100.00
55217;BME280;41086;46.736;15.666;2024-02-04T06:53:47;99072.34;;;4.03;100.00
55217;BME280;41086;46.736;15.666;2024-02-04T06:56:14;99078.09;;;4.14;100.00
55217;BME280;41086;46.736;15.666;2024-02-04T06:58:41;99084.28;;;3.85;100.00
55217;BME280;41086;46.736;15.666;2024-02-04T07:01:08;99082.34;;;3.33;100.00
55217;BME280;41086;46.736;15.666;2024-02-04T07:03:35;99097.81;;;3.71;100.00
55217;BME280;41086;46.736;15.666;2024-02-04T07:06:03;99118.06;;;3.36;100.00
55217;BME280;41086;46.736;15.666;2024-02-04T07:08:30;99099.72;;;3.66;100.00
55217;BME280;41086;46.736;15.666;2024-02-04T07:10:57;99098.47;;;3.49;100.00
55217;BME280;41086;46.736;15.666;2024-02-04T07:13:26;99087.66;;;4.15;100.00
55217;BME280;41086;46.736;15.666;2024-02-04T07:15:52;99092.03;;;3.88;100.00
55217;BME280;41086;46.736;15.666;2024-02-04T07:18:21;99080.91;;;3.81;100.00
55217;BME280;41086;46.736;15.666;2024-02-04T07:20:49;99069.72;;;4.29;100.00
55217;BME280;41086;46.736;15.666;2024-02-04T07:23:16;99072.00;;;4.65;100.00
55217;BME280;41086;46.736;15.666;2024-02-04T07:25:43;99102.53;;;4.42;100.00
55217;BME280;41086;46.736;15.666;2024-02-04T07:28:10;99100.91;;;4.38;100.00
55217;BME280;41086;46.736;15.666;2024-02-04T07:30:36;99097.09;;;4.72;100.00
55217;BME280;41086;46.736;15.666;2024-02-04T07:33:04;99104.00;;;4.75;100.00
55217;BME280;41086;46.736;15.666;2024-02-04T07:35:30;99104.16;;;4.97;100.00
55217;BME280;41086;46.736;15.666;2024-02-04T07:37:57;99089.88;;;4.79;100.00
55217;BME280;41086;46.736;15.666;2024-02-04T07:40:24;99109.09;;;5.04;100.00
55217;BME280;41086;46.736;15.666;2024-02-04T07:42:51;99095.97;;;5.04;100.00
55217;BME280;41086;46.736;15.666;2024-02-04T07:45:18;99115.91;;;5.33;100.00
55217;BME280;41086;46.736;15.666;2024-02-04T07:47:45;99108.38;;;5.48;100.00
55217;BME280;41086;46.736;15.666;2024-02-04T07:50:12;99115.84;;;5.59;100.00
55217;BME280;41086;46.736;15.666;2024-02-04T07:52:39;99103.94;;;5.72;99.65
55217;BME280;41086;46.736;15.666;2024-02-04T07:55:11;99111.91;;;5.92;99.14
55217;BME280;41086;46.736;15.666;2024-02-04T07:57:38;99099.19;;;5.82;97.21
55217;BME280;41086;46.736;15.666;2024-02-04T08:00:06;99108.63;;;5.64;96.38
55217;BME280;41086;46.736;15.666;2024-02-04T08:02:39;99104.47;;;5.58;97.19
55217;BME280;41086;46.736;15.666;2024-02-04T08:05:06;99117.63;;;5.58;97.34
55217;BME280;41086;46.736;15.666;2024-02-04T08:07:33;99115.28;;;5.50;99.75
55217;BME280;41086;46.736;15.666;2024-02-04T08:10:00;99112.69;;;5.72;99.03
55217;BME280;41086;46.736;15.666;2024-02-04T08:12:28;99129.88;;;6.05;98.46
55217;BME280;41086;46.736;15.666;2024-02-04T08:14:56;99128.03;;;6.29;99.76
55217;BME280;41086;46.736;15.666;2024-02-04T08:17:23;99120.50;;;6.41;99.14
55217;BME280;41086;46.736;15.666;2024-02-04T08:19:50;99134.59;;;6.61;98.14
55217;BME280;41086;46.736;15.666;2024-02-04T08:22:17;99137.19;;;6.40;95.23
55217;BME280;41086;46.736;15.666;2024-02-04T08:24:45;99117.72;;;6.44;96.56
55217;BME280;41086;46.736;15.666;2024-02-04T08:27:13;99118.16;;;6.34;96.84
55217;BME280;41086;46.736;15.666;2024-02-04T08:29:44;99120.56;;;6.18;98.06
55217;BME280;41086;46.736;15.666;2024-02-04T08:32:11;99129.88;;;5.59;100.00
55217;BME280;41086;46.736;15.666;2024-02-04T08:34:39;99114.84;;;6.08;100.00
55217;BME280;41086;46.736;15.666;2024-02-04T08:37:06;99065.97;;;6.23;100.00
55217;BME280;41086;46.736;15.666;2024-02-04T08:39:34;99107.00;;;6.90;99.73
55217;BME280;41086;46.736;15.666;2024-02-04T08:42:00;99124.00;;;7.03;95.57
55217;BME280;41086;46.736;15.666;2024-02-04T08:44:27;99109.00;;;6.85;97.96
55217;BME280;41086;46.736;15.666;2024-02-04T08:47:05;99118.06;;;5.91;98.90
55217;BME280;41086;46.736;15.666;2024-02-04T08:49:32;99113.13;;;5.38;100.00
55217;BME280;41086;46.736;15.666;2024-02-04T08:51:59;99128.53;;;5.71;100.00
55217;BME280;41086;46.736;15.666;2024-02-04T08:54:26;99128.22;;;5.57;100.00
55217;BME280;41086;46.736;15.666;2024-02-04T08:56:53;99130.59;;;5.63;100.00
55217;BME280;41086;46.736;15.666;2024-02-04T08:59:45;99128.22;;;5.33;100.00
55217;BME280;41086;46.736;15.666;2024-02-04T09:02:11;99128.66;;;5.44;100.00
55217;BME280;41086;46.736;15.666;2024-02-04T09:04:38;99116.41;;;5.67;100.00
55217;BME280;41086;46.736;15.666;2024-02-04T09:07:08;99097.69;;;5.98;100.00
55217;BME280;41086;46.736;15.666;2024-02-04T09:09:35;99098.97;;;6.73;100.00
55217;BME280;41086;46.736;15.666;2024-02-04T09:12:02;99097.91;;;7.37;100.00
55217;BME280;41086;46.736;15.666;2024-02-04T09:14:29;99111.75;;;7.42;94.77
55217;BME280;41086;46.736;15.666;2024-02-04T09:16:56;99116.41;;;7.35;96.03
55217;BME280;41086;46.736;15.666;2024-02-04T09:19:23;99109.59;;;7.50;95.73
55217;BME280;41086;46.736;15.666;2024-02-04T09:21:51;99119.03;;;8.11;94.94
55217;BME280;41086;46.736;15.666;2024-02-04T09:24:18;99120.97;;;8.07;91.37
55217;BME280;41086;46.736;15.666;2024-02-04T09:26:45;99106.03;;;8.25;90.55
55217;BME280;41086;46.736;15.666;2024-02-04T09:29:12;99106.72;;;8.48;90.97
55217;BME280;41086;46.736;15.666;2024-02-04T09:31:38;99098.06;;;8.79;89.21
55217;BME280;41086;46.736;15.666;2024-02-04T09:34:05;99087.44;;;8.80;85.42
55217;BME280;41086;46.736;15.666;2024-02-04T09:36:32;99083.69;;;8.67;86.55
55217;BME280;41086;46.736;15.666;2024-02-04T09:48:10;99094.56;;;7.90;89.03
55217;BME280;41086;46.736;15.666;2024-02-04T09:50:37;99085.53;;;7.94;90.49
55217;BME280;41086;46.736;15.666;2024-02-04T09:53:07;99083.81;;;8.29;90.28
55217;BME280;41086;46.736;15.666;2024-02-04T09:55:35;99083.75;;;8.31;89.90
55217;BME280;41086;46.736;15.666;2024-02-04T09:58:05;99081.81;;;8.34;91.41
55217;BME280;41086;46.736;15.666;2024-02-04T10:00:33;99061.44;;;8.71;91.52
55217;BME280;41086;46.736;15.666;2024-02-04T10:03:01;99076.22;;;9.26;89.73
55217;BME280;41086;46.736;15.666;2024-02-04T10:05:28;99051.59;;;9.57;89.54
55217;BME280;41086;46.736;15.666;2024-02-04T10:07:55;99054.84;;;10.24;89.37
55217;BME280;41086;46.736;15.666;2024-02-04T10:10:23;99070.66;;;11.15;82.41
55217;BME280;41086;46.736;15.666;2024-02-04T10:12:50;99070.09;;;11.52;78.96
55217;BME280;41086;46.736;15.666;2024-02-04T10:15:16;99067.09;;;12.13;77.04
55217;BME280;41086;46.736;15.666;2024-02-04T10:17:46;99078.69;;;12.39;72.79
55217;BME280;41086;46.736;15.666;2024-02-04T10:20:13;99071.56;;;12.39;72.01
55217;BME280;41086;46.736;15.666;2024-02-04T10:22:46;99070.72;;;12.39;71.41
55217;BME280;41086;46.736;15.666;2024-02-04T10:25:12;99075.94;;;12.40;71.00
55217;BME280;41086;46.736;15.666;2024-02-04T10:27:41;99069.41;;;12.32;70.15
55217;BME280;41086;46.736;15.666;2024-02-04T10:30:08;99062.56;;;12.15;70.59
55217;BME280;41086;46.736;15.666;2024-02-04T10:32:35;99058.59;;;12.08;70.13
55217;BME280;41086;46.736;15.666;2024-02-04T10:35:02;99056.09;;;11.92;72.80
55217;BME280;41086;46.736;15.666;2024-02-04T10:37:29;99051.34;;;11.83;70.98
55217;BME280;41086;46.736;15.666;2024-02-04T10:39:56;99053.16;;;11.82;73.40
55217;BME280;41086;46.736;15.666;2024-02-04T10:42:27;99028.69;;;11.77;73.47
55217;BME280;41086;46.736;15.666;2024-02-04T10:44:55;99024.06;;;11.66;73.89
55217;BME280;41086;46.736;15.666;2024-02-04T10:47:25;98986.81;;;11.26;74.96
55217;BME280;41086;46.736;15.666;2024-02-04T10:49:58;98998.94;;;11.02;74.90
55217;BME280;41086;46.736;15.666;2024-02-04T10:52:39;99000.94;;;10.98;78.16
55217;BME280;41086;46.736;15.666;2024-02-04T10:55:08;99000.69;;;10.89;78.97
55217;BME280;41086;46.736;15.666;2024-02-04T10:57:37;98991.63;;;11.34;78.25
55217;BME280;41086;46.736;15.666;2024-02-04T11:00:05;98990.03;;;11.59;74.67
55217;BME280;41086;46.736;15.666;2024-02-04T11:02:35;98991.78;;;11.45;76.22
55217;BME280;41086;46.736;15.666;2024-02-04T11:05:04;98979.03;;;12.19;78.46
55217;BME280;41086;46.736;15.666;2024-02-04T11:07:32;98985.78;;;13.01;74.15
55217;BME280;41086;46.736;15.666;2024-02-04T11:10:03;98958.31;;;13.14;69.64
55217;BME280;41086;46.736;15.666;2024-02-04T11:12:31;98957.34;;;13.15;66.91
55217;BME280;41086;46.736;15.666;2024-02-04T11:15:07;98963.19;;;13.20;65.98
55217;BME280;41086;46.736;15.666;2024-02-04T11:26:10;98949.94;;;13.68;64.94
55217;BME280;41086;46.736;15.666;2024-02-04T11:28:38;98962.16;;;14.30;65.68
55217;BME280;41086;46.736;15.666;2024-02-04T11:31:14;98957.59;;;15.12;63.51
55217;BME280;41086;46.736;15.666;2024-02-04T11:33:41;98951.63;;;15.86;61.29
55217;BME280;41086;46.736;15.666;2024-02-04T11:36:12;98945.25;;;16.61;55.21
55217;BME280;41086;46.736;15.666;2024-02-04T11:38:40;98947.06;;;17.02;54.76
55217;BME280;41086;46.736;15.666;2024-02-04T11:41:07;98940.75;;;17.13;53.32
55217;BME280;41086;46.736;15.666;2024-02-04T11:43:37;98939.16;;;17.51;51.67
55217;BME280;41086;46.736;15.666;2024-02-04T11:46:05;98930.47;;;17.88;50.71
55217;BME280;41086;46.736;15.666;2024-02-04T11:48:33;98928.75;;;18.26;48.99
55217;BME280;41086;46.736;15.666;2024-02-04T11:51:03;98938.84;;;18.71;48.22
55217;BME280;41086;46.736;15.666;2024-02-04T11:53:31;98934.09;;;18.45;45.17
55217;BME280;41086;46.736;15.666;2024-02-04T11:56:02;98919.00;;;18.91;47.57
55217;BME280;41086;46.736;15.666;2024-02-04T11:58:30;98911.13;;;19.17;47.17
55217;BME280;41086;46.736;15.666;2024-02-04T12:00:58;98902.38;;;19.61;45.78
55217;BME280;41086;46.736;15.666;2024-02-04T12:03:33;98910.84;;;20.20;46.06
55217;BME280;41086;46.736;15.666;2024-02-04T12:06:01;98892.34;;;20.43;45.43
55217;BME280;41086;46.736;15.666;2024-02-04T12:08:30;98888.97;;;20.67;46.08
55217;BME280;41086;46.736;15.666;2024-02-04T12:10:59;98898.19;;;20.56;45.46
55217;BME280;41086;46.736;15.666;2024-02-04T12:13:27;98879.31;;;20.56;44.23
55217;BME280;41086;46.736;15.666;2024-02-04T12:15:54;98879.41;;;20.20;45.30
55217;BME280;41086;46.736;15.666;2024-02-04T12:18:21;98883.94;;;20.46;44.46
55217;BME280;41086;46.736;15.666;2024-02-04T12:20:49;98882.38;;;20.61;43.95
55217;BME280;41086;46.736;15.666;2024-02-04T12:23:18;98880.66;;;20.86;43.99
55217;BME280;41086;46.736;15.666;2024-02-04T12:25:50;98885.78;;;21.06;42.21
55217;BME280;41086;46.736;15.666;2024-02-04T12:28:17;98864.78;;;21.09;41.86
55217;BME280;41086;46.736;15.666;2024-02-04T12:30:53;98849.25;;;21.03;40.56
55217;BME280;41086;46.736;15.666;2024-02-04T12:33:21;98858.19;;;20.43;43.17
55217;BME280;41086;46.736;15.666;2024-02-04T12:35:49;98850.44;;;20.40;41.82
55217;BME280;41086;46.736;15.666;2024-02-04T12:38:16;98858.88;;;20.71;41.32
55217;BME280;41086;46.736;15.666;2024-02-04T12:40:47;98839.78;;;20.56;43.54
55217;BME280;41086;46.736;15.666;2024-02-04T12:43:13;98842.81;;;20.88;43.50
55217;BME280;41086;46.736;15.666;2024-02-04T12:45:40;98840.25;;;20.86;40.57
55217;BME280;41086;46.736;15.666;2024-02-04T12:48:08;98831.63;;;20.48;41.32
55217;BME280;41086;46.736;15.666;2024-02-04T12:50:37;98830.59;;;20.67;42.47
55217;BME280;41086;46.736;15.666;2024-02-04T12:53:10;98829.78;;;20.75;42.14
55217;BME280;41086;46.736;15.666;2024-02-04T12:55:41;98823.69;;;20.73;42.75
55217;BME280;41086;46.736;15.666;2024-02-04T12:58:11;98827.00;;;20.93;43.41
55217;BME280;41086;46.736;15.666;2024-02-04T13:00:45;98835.84;;;20.77;42.37
55217;BME280;41086;46.736;15.666;2024-02-04T13:03:15;98822.19;;;20.70;42.34
55217;BME280;41086;46.736;15.666;2024-02-04T13:05:43;98830.75;;;20.66;42.62
55217;BME280;41086;46.736;15.666;2024-02-04T13:08:10;98821.66;;;20.67;41.42
55217;BME280;41086;46.736;15.666;2024-02-04T13:10:36;98826.81;;;20.94;41.23
55217;BME280;41086;46.736;15.666;2024-02-04T13:13:08;98817.09;;;21.01;40.39